createdAt,value
2023-04-10T00:01:36.079Z,8.13
2023-04-10T00:05:40.761Z,8.16
2023-04-10T00:09:44.364Z,8.16
2023-04-10T00:13:47.527Z,8.21
2023-04-10T00:17:55.446Z,8.22
2023-04-10T00:22:00.899Z,8.23
2023-04-10T00:26:04.208Z,8.20
2023-04-10T00:30:09.225Z,8.16
2023-04-10T00:34:14.159Z,8.14
2023-04-10T00:38:19.053Z,8.09
2023-04-10T00:42:22.590Z,8.03
2023-04-10T00:46:26.439Z,7.97
2023-04-10T00:50:29.813Z,7.91
2023-04-10T00:54:36.514Z,7.87
2023-04-10T00:58:40.203Z,7.81
2023-04-10T01:02:43.766Z,7.74
2023-04-10T01:06:58.725Z,7.71
2023-04-10T01:11:09.448Z,7.64
2023-04-10T01:15:14.840Z,7.57
2023-04-10T01:19:28.104Z,7.52
2023-04-10T01:23:55.444Z,7.46
2023-04-10T01:28:13.162Z,7.41
2023-04-10T01:32:20.619Z,7.36
2023-04-10T01:36:30.042Z,7.29
2023-04-10T01:40:34.345Z,7.22
2023-04-10T01:44:40.271Z,7.15
2023-04-10T01:48:46.410Z,7.09
2023-04-10T01:52:50.507Z,7.02
2023-04-10T01:56:53.876Z,6.95
2023-04-10T02:00:57.210Z,6.89
2023-04-10T02:05:02.201Z,6.82
2023-04-10T02:09:14.238Z,6.72
2023-04-10T02:13:22.333Z,6.59
2023-04-10T02:17:30.258Z,6.44
2023-04-10T02:21:35.162Z,6.28
2023-04-10T02:25:38.656Z,6.12
2023-04-10T02:29:41.685Z,5.97
2023-04-10T02:33:45.113Z,5.82
2023-04-10T02:37:51.039Z,5.69
2023-04-10T02:41:54.548Z,5.56
2023-04-10T02:45:57.669Z,5.45
2023-04-10T02:50:01.204Z,5.33
2023-04-10T02:54:06.216Z,5.23
2023-04-10T02:58:09.898Z,5.13
2023-04-10T03:02:13.204Z,5.03
2023-04-10T03:06:16.842Z,4.96
2023-04-10T03:10:21.430Z,4.90
2023-04-10T03:14:24.828Z,4.83
2023-04-10T03:18:28.143Z,4.78
2023-04-10T03:22:32.704Z,4.73
2023-04-10T03:26:37.382Z,4.68
2023-04-10T03:30:40.744Z,4.64
2023-04-10T03:34:43.765Z,4.62
2023-04-10T03:38:46.982Z,4.58
2023-04-10T03:42:51.385Z,4.53
2023-04-10T03:46:55.082Z,4.48
2023-04-10T03:50:58.200Z,4.43
2023-04-10T03:55:01.391Z,4.38
2023-04-10T03:59:06.199Z,4.33
2023-04-10T04:03:09.573Z,4.26
2023-04-10T04:07:14.154Z,4.22
2023-04-10T04:11:17.511Z,4.17
2023-04-10T04:15:24.027Z,4.13
2023-04-10T04:19:27.532Z,4.08
2023-04-10T04:23:30.589Z,4.04
2023-04-10T04:27:34.174Z,4.02
2023-04-10T04:31:39.190Z,4.00
2023-04-10T04:35:42.774Z,3.97
2023-04-10T04:39:46.081Z,3.97
2023-04-10T04:43:50.144Z,3.99
2023-04-10T04:47:54.814Z,4.03
2023-04-10T04:51:57.886Z,4.05
2023-04-10T04:56:00.979Z,4.09
2023-04-10T05:00:04.325Z,4.16
2023-04-10T05:04:08.860Z,4.25
2023-04-10T05:08:12.332Z,4.36
2023-04-10T05:12:15.621Z,4.47
2023-04-10T05:16:18.878Z,4.59
2023-04-10T05:20:23.875Z,4.72
2023-04-10T05:24:27.636Z,4.82
2023-04-10T05:28:31.245Z,4.94
2023-04-10T05:32:34.503Z,5.02
2023-04-10T05:36:39.251Z,5.10
2023-04-10T05:40:46.119Z,5.18
2023-04-10T05:44:49.427Z,5.26
2023-04-10T05:48:53.518Z,5.32
2023-04-10T05:52:58.531Z,5.43
2023-04-10T05:57:02.411Z,5.54
2023-04-10T06:01:06.198Z,5.63
2023-04-10T06:05:10.053Z,5.75
2023-04-10T06:09:15.070Z,5.93
2023-04-10T06:13:18.535Z,6.09
2023-04-10T06:17:22.028Z,6.22
2023-04-10T06:21:25.376Z,6.40
2023-04-10T06:25:29.964Z,6.57
2023-04-10T06:29:33.139Z,6.74
2023-04-10T06:33:37.283Z,6.93
2023-04-10T06:37:40.715Z,7.10
2023-04-10T06:41:45.309Z,7.33
2023-04-10T06:45:48.799Z,7.58
2023-04-10T06:49:52.143Z,7.84
2023-04-10T06:53:55.630Z,8.11
2023-04-10T06:58:00.241Z,8.34
2023-04-10T07:02:05.111Z,8.53
2023-04-10T07:06:08.971Z,8.70
2023-04-10T07:10:13.408Z,8.84
2023-04-10T07:14:17.990Z,9.00
2023-04-10T07:18:21.226Z,9.17
2023-04-10T07:22:24.161Z,9.35
2023-04-10T07:26:27.226Z,9.54
2023-04-10T07:30:31.925Z,9.73
2023-04-10T07:34:35.446Z,9.92
2023-04-10T07:38:38.928Z,10.09
2023-04-10T07:42:42.461Z,10.20
2023-04-10T07:46:47.602Z,10.26
2023-04-10T07:50:51.032Z,10.28
2023-04-10T07:54:54.167Z,10.38
2023-04-10T07:58:57.784Z,10.50
2023-04-10T08:03:02.726Z,10.63
2023-04-10T08:07:06.375Z,10.77
2023-04-10T08:11:24.900Z,10.97
2023-04-10T08:15:28.235Z,11.15
2023-04-10T08:19:32.905Z,11.33
2023-04-10T08:23:36.520Z,11.47
2023-04-10T08:27:39.568Z,11.63
2023-04-10T08:31:43.336Z,11.76
2023-04-10T08:35:50.201Z,11.88
2023-04-10T08:39:53.729Z,11.97
2023-04-10T08:43:58.240Z,12.09
2023-04-10T08:48:04.242Z,12.22
2023-04-10T08:52:10.843Z,12.38
2023-04-10T08:56:15.437Z,12.48
2023-04-10T09:04:44.922Z,12.98
2023-04-10T09:08:49.308Z,13.32
2023-04-10T09:12:53.712Z,13.68
2023-04-10T09:17:13.098Z,13.99
2023-04-10T09:21:18.353Z,14.23
2023-04-10T09:25:39.030Z,14.42
2023-04-10T09:29:48.937Z,14.50
2023-04-10T09:34:09.222Z,14.57
2023-04-10T09:38:17.733Z,14.66
2023-04-10T09:42:31.714Z,14.88
2023-04-10T09:46:35.481Z,15.20
2023-04-10T09:50:40.418Z,15.55
2023-04-10T09:54:43.758Z,15.76
2023-04-10T09:58:48.790Z,15.89
2023-04-10T10:02:53.994Z,15.93
2023-04-10T10:06:57.161Z,16.06
2023-04-10T10:11:03.920Z,16.18
2023-04-10T10:15:15.843Z,16.18
2023-04-10T10:19:25.088Z,16.16
2023-04-10T10:23:29.058Z,16.24
2023-04-10T10:27:33.354Z,16.39
2023-04-10T10:31:39.017Z,16.57
2023-04-10T10:35:43.440Z,16.70
2023-04-10T10:39:55.242Z,16.85
2023-04-10T10:44:10.076Z,17.03
2023-04-10T10:48:15.558Z,17.19
2023-04-10T10:52:38.799Z,17.36
2023-04-10T10:56:42.309Z,17.54
2023-04-10T11:01:10.074Z,17.73
2023-04-10T11:05:55.644Z,17.84
2023-04-10T11:09:59.787Z,18.09
2023-04-10T11:14:29.700Z,18.46
2023-04-10T11:19:14.944Z,18.80
2023-04-10T11:23:21.286Z,19.04
2023-04-10T11:27:41.717Z,19.15
2023-04-10T11:31:45.826Z,19.24
2023-04-10T11:35:49.274Z,19.39
2023-04-10T11:40:06.302Z,19.49
2023-04-10T11:44:11.230Z,19.60
2023-04-10T11:48:14.278Z,19.68
2023-04-10T11:52:26.930Z,19.62
2023-04-10T11:56:31.965Z,19.51
2023-04-10T12:00:35.414Z,19.46
2023-04-10T12:04:40.270Z,19.50
2023-04-10T12:08:46.298Z,19.61
2023-04-10T12:12:53.230Z,19.78
2023-04-10T12:16:57.031Z,19.86
2023-04-10T12:21:01.367Z,19.91
2023-04-10T12:25:07.552Z,20.05
2023-04-10T12:29:11.939Z,20.15
2023-04-10T12:33:16.709Z,20.24
2023-04-10T12:37:20.596Z,20.41
2023-04-10T12:41:25.856Z,20.64
2023-04-10T12:50:09.203Z,21.10
2023-04-10T12:54:12.427Z,21.26
2023-04-10T12:58:20.434Z,21.36
2023-04-10T13:02:24.981Z,21.31
2023-04-10T13:06:30.493Z,21.16
2023-04-10T13:10:33.544Z,20.99
2023-04-10T13:14:37.105Z,20.93
2023-04-10T13:18:40.412Z,20.93
2023-04-10T13:22:45.484Z,20.96
2023-04-10T13:26:50.201Z,20.92
2023-04-10T13:30:54.106Z,20.84
2023-04-10T13:34:57.503Z,20.73
2023-04-10T13:39:02.412Z,20.72
2023-04-10T13:43:06.791Z,20.73
2023-04-10T13:47:10.358Z,20.86
2023-04-10T13:51:13.550Z,21.09
2023-04-10T13:55:18.599Z,21.30
2023-04-10T13:59:22.077Z,21.43
2023-04-10T14:03:25.842Z,21.54
2023-04-10T14:07:29.164Z,21.66
2023-04-10T14:11:33.814Z,21.81
2023-04-10T14:15:36.862Z,21.80
2023-04-10T14:19:40.567Z,21.75
2023-04-10T14:23:43.452Z,21.73
2023-04-10T14:27:48.085Z,21.78
2023-04-10T14:31:57.481Z,21.86
2023-04-10T14:36:01.776Z,21.97
2023-04-10T14:40:05.961Z,22.07
2023-04-10T14:44:10.873Z,22.18
2023-04-10T14:48:14.447Z,22.26
2023-04-10T14:52:18.986Z,22.35
2023-04-10T14:56:22.194Z,22.42
2023-04-10T15:00:27.066Z,22.35
2023-04-10T15:04:30.089Z,22.20
2023-04-10T15:08:33.231Z,22.10
2023-04-10T15:12:36.134Z,22.02
2023-04-10T15:16:41.040Z,21.96
2023-04-10T15:20:44.531Z,21.89
2023-04-10T15:24:50.922Z,21.82
2023-04-10T15:28:54.105Z,21.75
2023-04-10T15:32:58.923Z,21.65
2023-04-10T15:37:02.127Z,21.55
2023-04-10T15:41:10.613Z,21.48
2023-04-10T15:45:13.769Z,21.41
2023-04-10T15:49:29.738Z,21.30
2023-04-10T15:53:37.555Z,21.13
2023-04-10T15:57:41.140Z,20.96
2023-04-10T16:01:44.653Z,20.76
2023-04-10T16:05:49.323Z,20.52
2023-04-10T16:09:55.201Z,20.25
2023-04-10T16:13:58.411Z,19.99
2023-04-10T16:18:01.609Z,19.72
2023-04-10T16:22:06.604Z,19.48
2023-04-10T16:26:09.533Z,19.25
2023-04-10T16:30:14.110Z,19.07
2023-04-10T16:34:17.485Z,18.89
2023-04-10T16:38:23.355Z,18.72
2023-04-10T16:42:26.740Z,18.54
2023-04-10T16:46:30.464Z,18.38
2023-04-10T16:50:35.831Z,18.24
2023-04-10T16:54:40.635Z,18.12
2023-04-10T16:58:43.507Z,17.95
2023-04-10T17:02:47.809Z,17.75
2023-04-10T17:06:51.449Z,17.54
2023-04-10T17:10:56.197Z,17.30
2023-04-10T17:14:59.307Z,17.00
2023-04-10T17:19:02.444Z,16.67
2023-04-10T17:23:05.579Z,16.32
2023-04-10T17:27:10.688Z,15.94
2023-04-10T17:31:14.267Z,15.53
2023-04-10T17:35:17.894Z,15.15
2023-04-10T17:39:22.020Z,14.78
2023-04-10T17:43:26.740Z,14.42
2023-04-10T17:47:30.305Z,14.07
2023-04-10T17:51:34.140Z,13.75
2023-04-10T17:55:40.902Z,13.44
2023-04-10T17:59:45.982Z,13.13
2023-04-10T18:03:49.364Z,12.85
2023-04-10T18:07:52.598Z,12.61
2023-04-10T18:11:56.363Z,12.37
2023-04-10T18:16:02.952Z,12.16
2023-04-10T18:20:06.779Z,11.96
2023-04-10T18:24:11.031Z,11.78
2023-04-10T18:28:16.110Z,11.64
2023-04-10T18:32:22.410Z,11.51
2023-04-10T18:36:26.708Z,11.40
2023-04-10T18:40:29.922Z,11.30
2023-04-10T18:44:34.736Z,11.24
2023-04-10T18:48:43.967Z,11.19
2023-04-10T18:52:47.295Z,11.14
2023-04-10T18:56:51.134Z,11.12
2023-04-10T19:00:55.552Z,11.11
2023-04-10T19:05:00.839Z,11.16
2023-04-10T19:09:04.221Z,11.21
2023-04-10T19:13:09.647Z,11.29
2023-04-10T19:17:13.546Z,11.35
2023-04-10T19:21:18.074Z,11.37
2023-04-10T19:25:21.897Z,11.38
2023-04-10T19:29:24.898Z,11.38
2023-04-10T19:33:27.987Z,11.37
2023-04-10T19:37:31.212Z,11.34
2023-04-10T19:41:37.321Z,11.32
2023-04-10T19:45:41.401Z,11.30
2023-04-10T19:49:44.750Z,11.28
2023-04-10T19:53:47.867Z,11.26
2023-04-10T19:57:53.092Z,11.24
2023-04-10T20:01:56.761Z,11.21
2023-04-10T20:06:01.447Z,11.18
2023-04-10T20:10:04.324Z,11.11
2023-04-10T20:14:07.275Z,11.00
2023-04-10T20:18:12.525Z,10.88
2023-04-10T20:22:15.693Z,10.75
2023-04-10T20:26:19.862Z,10.60
2023-04-10T20:30:23.459Z,10.46
2023-04-10T20:34:28.624Z,10.34
2023-04-10T20:38:32.434Z,10.18
2023-04-10T20:42:35.623Z,10.05
2023-04-10T20:46:38.914Z,9.90
2023-04-10T20:50:46.897Z,9.78
2023-04-10T20:54:50.301Z,9.66
2023-04-10T20:58:54.126Z,9.57
2023-04-10T21:02:57.511Z,9.49
2023-04-10T21:07:02.661Z,9.44
2023-04-10T21:11:06.422Z,9.36
2023-04-10T21:15:11.084Z,9.28
2023-04-10T21:19:15.722Z,9.19
2023-04-10T21:23:20.276Z,9.11
2023-04-10T21:27:23.698Z,9.03
2023-04-10T21:31:27.019Z,8.94
2023-04-10T21:35:30.425Z,8.90
2023-04-10T21:39:35.422Z,8.87
2023-04-10T21:43:39.797Z,8.85
2023-04-10T21:47:43.380Z,8.83
2023-04-10T21:51:47.342Z,8.84
2023-04-10T21:55:52.790Z,8.85
2023-04-10T21:59:56.049Z,8.84
2023-04-10T22:03:59.517Z,8.82
2023-04-10T22:08:03.135Z,8.78
2023-04-10T22:12:08.565Z,8.72
2023-04-10T22:16:12.022Z,8.68
2023-04-10T22:20:15.445Z,8.61
2023-04-10T22:24:18.600Z,8.54
2023-04-10T22:28:24.021Z,8.49
2023-04-10T22:32:27.486Z,8.44
2023-04-10T22:36:33.949Z,8.38
2023-04-10T22:40:37.416Z,8.31
2023-04-10T22:44:42.219Z,8.24
2023-04-10T22:48:51.789Z,8.16
2023-04-10T22:52:55.386Z,8.06
2023-04-10T22:56:59.261Z,7.96
2023-04-10T23:01:04.250Z,7.89
2023-04-10T23:09:31.619Z,7.69
2023-04-10T23:13:35.274Z,7.59
2023-04-10T23:17:40.650Z,7.49
2023-04-10T23:21:44.326Z,7.41
2023-04-10T23:25:47.967Z,7.33
2023-04-10T23:29:51.671Z,7.28
2023-04-10T23:33:56.608Z,7.22
2023-04-10T23:38:00.255Z,7.16
2023-04-10T23:42:04.714Z,7.09
2023-04-10T23:46:08.532Z,7.04
2023-04-10T23:50:13.928Z,7.01
2023-04-10T23:54:17.061Z,6.97
2023-04-10T23:58:20.507Z,6.91
